Kezdőlap
METAR-TAF:

METAR-TAF

Repülőterek :

Gainesville Municipal Airport

Gainesville, Texas, Amerikai Egyesült Államok

földrajzi szélesség: 33-39-05N, földrajzi hosszúság: 097-11-49W, magasság: 256 m

Jelenlegi meteorológiai megfigyelések

A jelentés 19 perccel ezelõtt készült, 11:35 UTC
Kelet-északkeleti szél 3 kt
Hőmérséklet 23°C
Páratartalom 100%
Légköri nyomás 1022 hPa
Látótávolság: 16.1 km
Szakadozott felhőzet 1200 lábon
Szakadozott felhőzet 3000 lábon

METAR: KGLE 201135Z AUTO 06003KT 10SM BKN012 BKN030 23/23 A3017 RMK AO2 T02340234 PWINO

Idő: 06:54 (11:54 UTC)


TAF: hiányzik

Meteorológiai megfigyelések és előrejelzések több, mint 4000 repülőtéren (METAR és TAF jelentéseket).

A térképen piros és sárga pontok jelzik az elérhető meteorológiai állomásokat.

Mozgassa az egeret a pont fölött, hogy megjelenjen az állomás neve.

Azután kattintson az időjárási megfigyelések és előrejelzések megtekintéséhez.

A térkép megváltoztatása: kattintson a fekete keresztel jelölt zöld gombra ráközelítéshez, a vonallal jelölt zöld gombra távolításhoz, vagy a zöld nyilakra a szomszédos térképek eléréséhez.


METAR-TAF: